sensor_id;sensor_type;location;lat;lon;timestamp;pressure;altitude;pressure_sealevel;temperature;humidity
41040;BME280;48586;50.122;18.972;2022-09-23T00:00:31;99100.47;;;10.33;75.03
41040;BME280;48586;50.122;18.972;2022-09-23T00:03:35;99093.91;;;10.29;75.32
41040;BME280;48586;50.122;18.972;2022-09-23T00:06:38;99092.66;;;10.25;75.30
41040;BME280;48586;50.122;18.972;2022-09-23T00:09:40;99094.28;;;10.26;75.33
41040;BME280;48586;50.122;18.972;2022-09-23T00:12:54;99093.69;;;10.31;75.28
41040;BME280;48586;50.122;18.972;2022-09-23T00:16:01;99086.34;;;10.26;75.41
41040;BME280;48586;50.122;18.972;2022-09-23T00:19:03;99093.84;;;10.16;75.43
41040;BME280;48586;50.122;18.972;2022-09-23T00:22:06;99091.34;;;10.08;75.37
41040;BME280;48586;50.122;18.972;2022-09-23T00:25:09;99085.31;;;9.92;75.42
41040;BME280;48586;50.122;18.972;2022-09-23T00:28:11;99089.09;;;9.83;75.77
41040;BME280;48586;50.122;18.972;2022-09-23T00:31:17;99090.50;;;9.79;75.77
41040;BME280;48586;50.122;18.972;2022-09-23T00:34:19;99084.31;;;9.72;75.92
41040;BME280;48586;50.122;18.972;2022-09-23T00:37:21;99089.00;;;9.70;75.92
41040;BME280;48586;50.122;18.972;2022-09-23T00:40:23;99079.22;;;9.70;75.98
41040;BME280;48586;50.122;18.972;2022-09-23T00:43:40;99077.25;;;9.79;76.00
41040;BME280;48586;50.122;18.972;2022-09-23T00:46:43;99075.63;;;9.78;76.19
41040;BME280;48586;50.122;18.972;2022-09-23T00:49:49;99073.84;;;9.85;76.28
41040;BME280;48586;50.122;18.972;2022-09-23T00:52:53;99071.25;;;9.92;76.15
41040;BME280;48586;50.122;18.972;2022-09-23T00:56:01;99072.13;;;9.99;75.98
41040;BME280;48586;50.122;18.972;2022-09-23T00:59:03;99071.09;;;10.00;75.89
41040;BME280;48586;50.122;18.972;2022-09-23T01:02:12;99076.63;;;10.05;75.93
41040;BME280;48586;50.122;18.972;2022-09-23T01:05:15;99073.38;;;10.03;75.90
41040;BME280;48586;50.122;18.972;2022-09-23T01:08:18;99070.72;;;10.03;75.92
41040;BME280;48586;50.122;18.972;2022-09-23T01:11:35;99067.50;;;10.08;76.04
41040;BME280;48586;50.122;18.972;2022-09-23T01:14:47;99067.50;;;10.08;76.10
41040;BME280;48586;50.122;18.972;2022-09-23T01:17:57;99064.84;;;10.08;76.19
41040;BME280;48586;50.122;18.972;2022-09-23T01:21:14;99063.81;;;10.09;76.10
41040;BME280;48586;50.122;18.972;2022-09-23T01:24:44;99063.81;;;10.09;76.30
41040;BME280;48586;50.122;18.972;2022-09-23T01:28:02;99060.38;;;10.15;76.34
41040;BME280;48586;50.122;18.972;2022-09-23T01:31:10;99058.38;;;10.17;76.15
41040;BME280;48586;50.122;18.972;2022-09-23T01:34:20;99045.75;;;10.19;76.14
41040;BME280;48586;50.122;18.972;2022-09-23T01:37:31;99049.84;;;10.22;76.19
41040;BME280;48586;50.122;18.972;2022-09-23T01:40:44;99052.66;;;10.20;76.24
41040;BME280;48586;50.122;18.972;2022-09-23T01:43:56;99042.72;;;10.22;76.33
41040;BME280;48586;50.122;18.972;2022-09-23T01:47:06;99047.00;;;10.23;76.13
41040;BME280;48586;50.122;18.972;2022-09-23T01:50:15;99047.63;;;10.25;76.10
41040;BME280;48586;50.122;18.972;2022-09-23T01:53:42;99054.34;;;10.21;75.86
41040;BME280;48586;50.122;18.972;2022-09-23T01:56:49;99044.13;;;10.18;76.00
41040;BME280;48586;50.122;18.972;2022-09-23T01:59:57;99049.41;;;10.18;76.13
41040;BME280;48586;50.122;18.972;2022-09-23T02:03:06;99048.59;;;10.17;76.22
41040;BME280;48586;50.122;18.972;2022-09-23T02:06:16;99044.31;;;10.16;76.28
41040;BME280;48586;50.122;18.972;2022-09-23T02:09:22;99057.94;;;10.13;76.12
41040;BME280;48586;50.122;18.972;2022-09-23T02:12:25;99048.75;;;10.09;76.40
41040;BME280;48586;50.122;18.972;2022-09-23T02:15:31;99046.91;;;10.10;76.37
41040;BME280;48586;50.122;18.972;2022-09-23T02:18:39;99040.44;;;10.12;76.30
41040;BME280;48586;50.122;18.972;2022-09-23T02:21:49;99047.78;;;10.17;76.34
41040;BME280;48586;50.122;18.972;2022-09-23T02:24:55;99044.72;;;10.20;76.31
41040;BME280;48586;50.122;18.972;2022-09-23T02:28:06;99043.31;;;10.24;76.24
41040;BME280;48586;50.122;18.972;2022-09-23T02:31:15;99034.56;;;10.24;76.36
41040;BME280;48586;50.122;18.972;2022-09-23T02:34:28;99039.91;;;10.30;76.55
41040;BME280;48586;50.122;18.972;2022-09-23T02:37:37;99040.56;;;10.39;76.61
41040;BME280;48586;50.122;18.972;2022-09-23T02:40:49;99045.06;;;10.45;76.30
41040;BME280;48586;50.122;18.972;2022-09-23T02:43:56;99045.88;;;10.45;76.15
41040;BME280;48586;50.122;18.972;2022-09-23T02:47:01;99053.22;;;10.43;75.90
41040;BME280;48586;50.122;18.972;2022-09-23T02:50:05;99051.59;;;10.42;76.10
41040;BME280;48586;50.122;18.972;2022-09-23T02:53:08;99046.88;;;10.44;76.25
41040;BME280;48586;50.122;18.972;2022-09-23T02:56:13;99047.94;;;10.50;76.31
41040;BME280;48586;50.122;18.972;2022-09-23T02:59:16;99052.25;;;10.51;76.20
41040;BME280;48586;50.122;18.972;2022-09-23T03:02:39;99045.09;;;10.52;76.03
41040;BME280;48586;50.122;18.972;2022-09-23T03:05:56;99045.09;;;10.52;76.23
41040;BME280;48586;50.122;18.972;2022-09-23T03:09:03;99038.16;;;10.51;76.28
41040;BME280;48586;50.122;18.972;2022-09-23T03:12:12;99044.72;;;10.55;76.27
41040;BME280;48586;50.122;18.972;2022-09-23T03:15:21;99039.00;;;10.58;76.40
41040;BME280;48586;50.122;18.972;2022-09-23T03:18:31;99033.09;;;10.62;76.08
41040;BME280;48586;50.122;18.972;2022-09-23T03:21:38;99030.50;;;10.69;76.37
41040;BME280;48586;50.122;18.972;2022-09-23T03:24:44;99042.34;;;10.73;76.08
41040;BME280;48586;50.122;18.972;2022-09-23T03:27:46;99034.56;;;10.65;75.64
41040;BME280;48586;50.122;18.972;2022-09-23T03:30:48;99034.13;;;10.61;75.95
41040;BME280;48586;50.122;18.972;2022-09-23T03:33:54;99029.47;;;10.63;76.18
41040;BME280;48586;50.122;18.972;2022-09-23T03:37:02;99035.41;;;10.65;76.02
41040;BME280;48586;50.122;18.972;2022-09-23T03:40:08;99040.47;;;10.67;75.90
41040;BME280;48586;50.122;18.972;2022-09-23T03:43:12;99039.06;;;10.71;75.71
41040;BME280;48586;50.122;18.972;2022-09-23T03:46:14;99034.41;;;10.73;75.87
41040;BME280;48586;50.122;18.972;2022-09-23T03:49:18;99045.44;;;10.77;75.96
41040;BME280;48586;50.122;18.972;2022-09-23T03:52:26;99034.41;;;10.73;75.60
41040;BME280;48586;50.122;18.972;2022-09-23T03:55:27;99040.47;;;10.67;75.67
41040;BME280;48586;50.122;18.972;2022-09-23T03:58:29;99034.56;;;10.65;75.98
41040;BME280;48586;50.122;18.972;2022-09-23T04:01:31;99035.81;;;10.69;75.71
41040;BME280;48586;50.122;18.972;2022-09-23T04:04:35;99036.84;;;10.68;75.53
41040;BME280;48586;50.122;18.972;2022-09-23T04:07:38;99036.16;;;10.59;75.37
41040;BME280;48586;50.122;18.972;2022-09-23T04:10:40;99042.63;;;10.43;75.52
41040;BME280;48586;50.122;18.972;2022-09-23T04:13:42;99042.81;;;10.42;75.81
41040;BME280;48586;50.122;18.972;2022-09-23T04:16:44;99040.34;;;10.40;75.56
41040;BME280;48586;50.122;18.972;2022-09-23T04:19:46;99046.66;;;10.39;75.75
41040;BME280;48586;50.122;18.972;2022-09-23T04:22:49;99033.66;;;10.44;75.74
41040;BME280;48586;50.122;18.972;2022-09-23T04:25:51;99036.06;;;10.39;75.46
41040;BME280;48586;50.122;18.972;2022-09-23T04:28:53;99042.16;;;10.33;75.47
41040;BME280;48586;50.122;18.972;2022-09-23T04:31:54;99034.59;;;10.30;75.52
41040;BME280;48586;50.122;18.972;2022-09-23T04:34:57;99037.47;;;10.29;75.73
41040;BME280;48586;50.122;18.972;2022-09-23T04:38:00;99036.22;;;10.25;75.49
41040;BME280;48586;50.122;18.972;2022-09-23T04:41:01;99036.78;;;10.20;75.72
41040;BME280;48586;50.122;18.972;2022-09-23T04:44:03;99044.72;;;10.20;75.73
41040;BME280;48586;50.122;18.972;2022-09-23T04:47:05;99043.72;;;10.21;75.84
41040;BME280;48586;50.122;18.972;2022-09-23T04:50:07;99045.38;;;10.22;75.73
41040;BME280;48586;50.122;18.972;2022-09-23T04:53:11;99041.91;;;10.28;75.75
41040;BME280;48586;50.122;18.972;2022-09-23T04:56:15;99045.41;;;10.29;75.48
41040;BME280;48586;50.122;18.972;2022-09-23T04:59:18;99045.56;;;10.20;75.28
41040;BME280;48586;50.122;18.972;2022-09-23T05:02:19;99041.03;;;10.14;75.78
41040;BME280;48586;50.122;18.972;2022-09-23T05:05:22;99047.94;;;10.09;75.53
41040;BME280;48586;50.122;18.972;2022-09-23T05:08:25;99045.06;;;10.04;75.72
41040;BME280;48586;50.122;18.972;2022-09-23T05:11:29;99046.91;;;10.10;75.97
41040;BME280;48586;50.122;18.972;2022-09-23T05:14:31;99041.66;;;10.16;75.67
41040;BME280;48586;50.122;18.972;2022-09-23T05:17:34;99048.75;;;10.09;75.59
41040;BME280;48586;50.122;18.972;2022-09-23T05:20:36;99056.63;;;10.03;75.65
41040;BME280;48586;50.122;18.972;2022-09-23T05:23:40;99053.81;;;10.04;75.95
41040;BME280;48586;50.122;18.972;2022-09-23T05:26:42;99053.84;;;10.11;75.95
41040;BME280;48586;50.122;18.972;2022-09-23T05:29:44;99052.22;;;10.10;75.59
41040;BME280;48586;50.122;18.972;2022-09-23T05:32:46;99057.88;;;10.07;75.82
41040;BME280;48586;50.122;18.972;2022-09-23T05:35:48;99059.78;;;10.13;75.62
41040;BME280;48586;50.122;18.972;2022-09-23T05:38:52;99065.31;;;10.18;75.47
41040;BME280;48586;50.122;18.972;2022-09-23T05:41:56;99056.47;;;10.04;75.68
41040;BME280;48586;50.122;18.972;2022-09-23T05:44:59;99065.22;;;10.05;75.80
41040;BME280;48586;50.122;18.972;2022-09-23T05:48:02;99061.31;;;10.01;76.08
41040;BME280;48586;50.122;18.972;2022-09-23T05:51:05;99053.81;;;10.04;76.28
41040;BME280;48586;50.122;18.972;2022-09-23T05:54:13;99069.41;;;10.20;76.45
41040;BME280;48586;50.122;18.972;2022-09-23T05:57:15;99063.97;;;10.35;75.92
41040;BME280;48586;50.122;18.972;2022-09-23T06:00:17;99064.84;;;10.49;75.97
41040;BME280;48586;50.122;18.972;2022-09-23T06:03:19;99063.50;;;10.60;75.86
41040;BME280;48586;50.122;18.972;2022-09-23T06:06:25;99070.28;;;10.69;75.75
41040;BME280;48586;50.122;18.972;2022-09-23T06:09:29;99058.88;;;10.68;75.76
41040;BME280;48586;50.122;18.972;2022-09-23T06:12:31;99065.19;;;10.74;75.66
41040;BME280;48586;50.122;18.972;2022-09-23T06:15:34;99059.53;;;10.90;75.90
41040;BME280;48586;50.122;18.972;2022-09-23T06:18:38;99059.19;;;11.13;75.41
41040;BME280;48586;50.122;18.972;2022-09-23T06:21:41;99059.22;;;11.20;75.17
41040;BME280;48586;50.122;18.972;2022-09-23T06:24:45;99063.69;;;11.26;75.00
41040;BME280;48586;50.122;18.972;2022-09-23T06:27:52;99059.63;;;11.30;74.93
41040;BME280;48586;50.122;18.972;2022-09-23T06:30:55;99070.47;;;11.42;74.71
41040;BME280;48586;50.122;18.972;2022-09-23T06:33:58;99062.28;;;11.57;74.66
41040;BME280;48586;50.122;18.972;2022-09-23T06:37:00;99067.19;;;11.73;74.41
41040;BME280;48586;50.122;18.972;2022-09-23T06:40:04;99080.47;;;11.80;74.36
41040;BME280;48586;50.122;18.972;2022-09-23T06:43:06;99076.00;;;11.80;74.28
41040;BME280;48586;50.122;18.972;2022-09-23T06:46:08;99080.06;;;11.76;74.21
41040;BME280;48586;50.122;18.972;2022-09-23T06:49:16;99084.94;;;11.66;74.31
41040;BME280;48586;50.122;18.972;2022-09-23T06:52:19;99078.03;;;11.65;74.17
41040;BME280;48586;50.122;18.972;2022-09-23T06:55:24;99083.34;;;11.58;74.84
41040;BME280;48586;50.122;18.972;2022-09-23T06:58:29;99075.78;;;11.55;74.74
41040;BME280;48586;50.122;18.972;2022-09-23T07:01:31;99083.31;;;11.45;74.53
41040;BME280;48586;50.122;18.972;2022-09-23T07:04:34;99084.34;;;11.37;74.96
41040;BME280;48586;50.122;18.972;2022-09-23T07:07:36;99088.63;;;11.38;74.98
41040;BME280;48586;50.122;18.972;2022-09-23T07:10:40;99084.53;;;11.36;75.03
41040;BME280;48586;50.122;18.972;2022-09-23T07:13:42;99086.16;;;11.30;75.27
41040;BME280;48586;50.122;18.972;2022-09-23T07:16:43;99084.34;;;11.37;75.27
41040;BME280;48586;50.122;18.972;2022-09-23T07:19:46;99080.47;;;11.47;75.27
41040;BME280;48586;50.122;18.972;2022-09-23T07:22:48;99082.13;;;11.54;74.80
41040;BME280;48586;50.122;18.972;2022-09-23T07:25:57;99080.06;;;11.69;74.76
41040;BME280;48586;50.122;18.972;2022-09-23T07:29:00;99092.72;;;11.74;74.43
41040;BME280;48586;50.122;18.972;2022-09-23T07:32:04;99092.53;;;11.82;74.30
41040;BME280;48586;50.122;18.972;2022-09-23T07:35:07;99086.81;;;11.85;74.01
41040;BME280;48586;50.122;18.972;2022-09-23T07:38:10;99087.81;;;11.78;73.95
41040;BME280;48586;50.122;18.972;2022-09-23T07:41:16;99091.72;;;11.82;73.66
41040;BME280;48586;50.122;18.972;2022-09-23T07:44:18;99098.66;;;11.76;73.57
41040;BME280;48586;50.122;18.972;2022-09-23T07:47:21;99096.00;;;11.69;73.89
41040;BME280;48586;50.122;18.972;2022-09-23T07:50:23;99090.06;;;11.81;73.59
41040;BME280;48586;50.122;18.972;2022-09-23T07:53:26;99096.41;;;11.93;73.62
41040;BME280;48586;50.122;18.972;2022-09-23T07:56:30;99100.47;;;11.95;72.83
41040;BME280;48586;50.122;18.972;2022-09-23T07:59:32;99089.44;;;11.99;73.11
41040;BME280;48586;50.122;18.972;2022-09-23T08:02:34;99091.69;;;12.15;72.74
41040;BME280;48586;50.122;18.972;2022-09-23T08:05:36;99093.09;;;12.37;72.57
41040;BME280;48586;50.122;18.972;2022-09-23T08:08:39;99101.41;;;12.61;71.99
41040;BME280;48586;50.122;18.972;2022-09-23T08:11:44;99097.91;;;12.67;71.40
41040;BME280;48586;50.122;18.972;2022-09-23T08:14:46;99102.03;;;13.08;72.07
41040;BME280;48586;50.122;18.972;2022-09-23T08:17:48;99092.31;;;13.27;70.05
41040;BME280;48586;50.122;18.972;2022-09-23T08:20:50;99103.31;;;13.30;70.44
41040;BME280;48586;50.122;18.972;2022-09-23T08:23:52;99100.22;;;13.40;69.90
41040;BME280;48586;50.122;18.972;2022-09-23T08:26:55;99099.59;;;13.38;68.54
41040;BME280;48586;50.122;18.972;2022-09-23T08:29:57;99097.56;;;13.33;68.41
41040;BME280;48586;50.122;18.972;2022-09-23T08:32:59;99094.09;;;13.33;69.21
41040;BME280;48586;50.122;18.972;2022-09-23T08:36:01;99074.59;;;13.39;68.64
41040;BME280;48586;50.122;18.972;2022-09-23T08:39:05;99081.69;;;13.52;68.97
41040;BME280;48586;50.122;18.972;2022-09-23T08:42:15;99070.41;;;14.06;68.27
41040;BME280;48586;50.122;18.972;2022-09-23T08:45:22;99072.13;;;14.37;66.36
41040;BME280;48586;50.122;18.972;2022-09-23T08:48:28;99075.25;;;14.53;66.56
41040;BME280;48586;50.122;18.972;2022-09-23T08:51:34;99060.25;;;14.70;65.01
41040;BME280;48586;50.122;18.972;2022-09-23T08:54:37;99066.03;;;14.67;64.57
41040;BME280;48586;50.122;18.972;2022-09-23T08:57:47;99062.69;;;14.90;65.75
41040;BME280;48586;50.122;18.972;2022-09-23T09:00:55;99076.09;;;14.83;64.48
41040;BME280;48586;50.122;18.972;2022-09-23T09:04:02;99080.59;;;14.53;65.24
41040;BME280;48586;50.122;18.972;2022-09-23T09:07:11;99073.25;;;14.48;65.29
41040;BME280;48586;50.122;18.972;2022-09-23T09:10:17;99074.19;;;14.54;63.40
41040;BME280;48586;50.122;18.972;2022-09-23T09:13:28;99066.41;;;14.70;64.62
41040;BME280;48586;50.122;18.972;2022-09-23T09:20:02;99068.34;;;14.63;63.87
41040;BME280;48586;50.122;18.972;2022-09-23T09:23:17;99055.59;;;14.65;62.88
41040;BME280;48586;50.122;18.972;2022-09-23T09:26:23;99058.41;;;14.89;64.20
41040;BME280;48586;50.122;18.972;2022-09-23T09:29:31;99055.34;;;15.04;61.88
41040;BME280;48586;50.122;18.972;2022-09-23T09:32:41;99047.16;;;15.29;62.26
41040;BME280;48586;50.122;18.972;2022-09-23T09:36:05;99042.22;;;15.56;59.73
41040;BME280;48586;50.122;18.972;2022-09-23T09:39:10;99043.53;;;15.88;61.02
41040;BME280;48586;50.122;18.972;2022-09-23T09:42:18;99037.50;;;16.16;60.74
41040;BME280;48586;50.122;18.972;2022-09-23T09:45:38;99031.81;;;16.25;55.23
41040;BME280;48586;50.122;18.972;2022-09-23T09:48:49;99034.44;;;16.01;58.34
41040;BME280;48586;50.122;18.972;2022-09-23T09:52:27;99018.13;;;16.50;55.77
41040;BME280;48586;50.122;18.972;2022-09-23T09:55:29;99012.19;;;16.76;58.64
41040;BME280;48586;50.122;18.972;2022-09-23T09:58:39;99008.22;;;17.53;55.37
41040;BME280;48586;50.122;18.972;2022-09-23T10:01:46;99004.22;;;17.89;57.64
41040;BME280;48586;50.122;18.972;2022-09-23T10:04:58;99001.69;;;18.65;55.54
41040;BME280;48586;50.122;18.972;2022-09-23T10:08:21;98995.91;;;19.27;53.00
41040;BME280;48586;50.122;18.972;2022-09-23T10:11:24;99007.38;;;18.95;54.75
41040;BME280;48586;50.122;18.972;2022-09-23T10:14:26;98996.53;;;18.58;54.60
41040;BME280;48586;50.122;18.972;2022-09-23T10:17:32;98995.88;;;18.73;55.50
41040;BME280;48586;50.122;18.972;2022-09-23T10:20:35;98992.34;;;18.67;53.72
41040;BME280;48586;50.122;18.972;2022-09-23T10:23:40;98991.03;;;18.26;53.70
41040;BME280;48586;50.122;18.972;2022-09-23T10:26:49;98987.16;;;17.78;54.56
41040;BME280;48586;50.122;18.972;2022-09-23T10:29:56;98992.03;;;17.64;55.60
41040;BME280;48586;50.122;18.972;2022-09-23T10:32:59;98990.03;;;17.55;55.16
41040;BME280;48586;50.122;18.972;2022-09-23T10:36:01;98997.59;;;17.24;54.52
41040;BME280;48586;50.122;18.972;2022-09-23T10:39:04;98993.38;;;17.00;54.13
41040;BME280;48586;50.122;18.972;2022-09-23T10:42:31;98994.56;;;16.63;54.62
41040;BME280;48586;50.122;18.972;2022-09-23T10:46:01;98998.59;;;16.37;55.17
41040;BME280;48586;50.122;18.972;2022-09-23T10:49:49;98993.53;;;16.24;52.75
41040;BME280;48586;50.122;18.972;2022-09-23T10:53:02;98990.81;;;16.48;54.93
41040;BME280;48586;50.122;18.972;2022-09-23T10:56:14;98980.75;;;17.62;52.89
41040;BME280;48586;50.122;18.972;2022-09-23T10:59:47;98975.41;;;19.21;51.02
41040;BME280;48586;50.122;18.972;2022-09-23T11:03:23;98967.41;;;20.01;49.82
41040;BME280;48586;50.122;18.972;2022-09-23T11:06:41;98962.50;;;19.98;47.92
41040;BME280;48586;50.122;18.972;2022-09-23T11:10:08;98967.22;;;20.17;49.91
41040;BME280;48586;50.122;18.972;2022-09-23T11:13:26;98958.97;;;20.44;49.12
41040;BME280;48586;50.122;18.972;2022-09-23T11:16:45;98961.56;;;20.24;49.26
41040;BME280;48586;50.122;18.972;2022-09-23T11:20:15;98951.16;;;19.90;48.34
41040;BME280;48586;50.122;18.972;2022-09-23T11:23:45;98957.44;;;19.59;48.23
41040;BME280;48586;50.122;18.972;2022-09-23T11:26:59;98950.78;;;19.34;49.79
41040;BME280;48586;50.122;18.972;2022-09-23T11:30:08;98952.91;;;19.69;50.87
41040;BME280;48586;50.122;18.972;2022-09-23T11:33:25;98952.34;;;20.05;47.25
41040;BME280;48586;50.122;18.972;2022-09-23T11:36:36;98952.50;;;20.51;47.83
41040;BME280;48586;50.122;18.972;2022-09-23T11:39:44;98942.72;;;20.19;45.20
41040;BME280;48586;50.122;18.972;2022-09-23T11:42:52;98945.34;;;20.09;44.30
41040;BME280;48586;50.122;18.972;2022-09-23T11:46:01;98946.66;;;19.59;46.04
41040;BME280;48586;50.122;18.972;2022-09-23T11:49:12;98943.53;;;19.35;46.80
41040;BME280;48586;50.122;18.972;2022-09-23T11:52:20;98938.97;;;19.03;46.81
41040;BME280;48586;50.122;18.972;2022-09-23T11:55:26;98943.34;;;18.82;47.31
41040;BME280;48586;50.122;18.972;2022-09-23T11:58:36;98937.84;;;18.67;47.36
41040;BME280;48586;50.122;18.972;2022-09-23T12:01:44;98938.81;;;18.61;48.09
41040;BME280;48586;50.122;18.972;2022-09-23T12:04:54;98933.88;;;18.48;48.07
41040;BME280;48586;50.122;18.972;2022-09-23T12:08:04;98935.56;;;18.32;47.57
41040;BME280;48586;50.122;18.972;2022-09-23T12:11:22;98923.44;;;18.07;45.96
41040;BME280;48586;50.122;18.972;2022-09-23T12:14:29;98929.22;;;18.16;48.14
41040;BME280;48586;50.122;18.972;2022-09-23T12:21:28;98916.50;;;18.28;44.83
41040;BME280;48586;50.122;18.972;2022-09-23T12:24:45;98917.91;;;18.14;44.04
41040;BME280;48586;50.122;18.972;2022-09-23T12:27:51;98915.78;;;17.94;45.96
41040;BME280;48586;50.122;18.972;2022-09-23T12:30:56;98905.22;;;17.65;47.15
41040;BME280;48586;50.122;18.972;2022-09-23T12:34:16;98908.19;;;17.47;46.80
41040;BME280;48586;50.122;18.972;2022-09-23T12:37:24;98898.47;;;17.24;46.95
41040;BME280;48586;50.122;18.972;2022-09-23T12:40:30;98902.84;;;17.30;46.52
41040;BME280;48586;50.122;18.972;2022-09-23T12:43:35;98897.63;;;17.24;45.70
41040;BME280;48586;50.122;18.972;2022-09-23T12:46:37;98889.31;;;17.20;46.85
41040;BME280;48586;50.122;18.972;2022-09-23T12:49:40;98889.59;;;17.07;46.68
41040;BME280;48586;50.122;18.972;2022-09-23T12:52:42;98888.88;;;16.94;47.08
41040;BME280;48586;50.122;18.972;2022-09-23T12:55:44;98889.91;;;16.93;47.62
41040;BME280;48586;50.122;18.972;2022-09-23T12:59:10;98888.03;;;17.11;47.00
41040;BME280;48586;50.122;18.972;2022-09-23T13:02:25;98882.22;;;17.14;46.44
41040;BME280;48586;50.122;18.972;2022-09-23T13:05:29;98877.03;;;17.07;46.70
41040;BME280;48586;50.122;18.972;2022-09-23T13:08:48;98870.69;;;16.96;46.83
41040;BME280;48586;50.122;18.972;2022-09-23T13:11:51;98874.50;;;17.01;47.15
41040;BME280;48586;50.122;18.972;2022-09-23T13:14:58;98870.84;;;17.07;46.64
41040;BME280;48586;50.122;18.972;2022-09-23T13:18:23;98873.94;;;16.99;45.01
41040;BME280;48586;50.122;18.972;2022-09-23T13:25:17;98857.53;;;16.78;45.28
41040;BME280;48586;50.122;18.972;2022-09-23T13:28:30;98856.47;;;16.79;45.69
41040;BME280;48586;50.122;18.972;2022-09-23T13:31:34;98849.25;;;16.96;47.57
41040;BME280;48586;50.122;18.972;2022-09-23T13:34:36;98848.69;;;17.11;47.18
41040;BME280;48586;50.122;18.972;2022-09-23T13:37:42;98841.31;;;17.18;46.65
41040;BME280;48586;50.122;18.972;2022-09-23T13:40:45;98836.13;;;17.29;46.61
41040;BME280;48586;50.122;18.972;2022-09-23T13:43:48;98836.34;;;17.27;46.69
41040;BME280;48586;50.122;18.972;2022-09-23T13:46:55;98828.28;;;17.44;46.18
41040;BME280;48586;50.122;18.972;2022-09-23T13:49:58;98821.94;;;17.50;45.92
41040;BME280;48586;50.122;18.972;2022-09-23T13:53:04;98821.03;;;17.44;44.50
41040;BME280;48586;50.122;18.972;2022-09-23T13:56:12;98817.72;;;17.54;45.89
41040;BME280;48586;50.122;18.972;2022-09-23T13:59:23;98816.75;;;17.65;46.13
41040;BME280;48586;50.122;18.972;2022-09-23T14:02:28;98811.34;;;17.60;45.13
41040;BME280;48586;50.122;18.972;2022-09-23T14:05:33;98815.09;;;17.59;45.48
41040;BME280;48586;50.122;18.972;2022-09-23T14:08:38;98815.03;;;17.54;45.42
41040;BME280;48586;50.122;18.972;2022-09-23T14:11:40;98811.97;;;17.45;42.75
41040;BME280;48586;50.122;18.972;2022-09-23T14:14:43;98810.38;;;17.28;46.14
41040;BME280;48586;50.122;18.972;2022-09-23T14:17:50;98807.31;;;17.19;45.30
41040;BME280;48586;50.122;18.972;2022-09-23T14:20:53;98800.50;;;17.28;46.41
41040;BME280;48586;50.122;18.972;2022-09-23T14:23:56;98798.41;;;17.35;45.24
41040;BME280;48586;50.122;18.972;2022-09-23T14:27:17;98802.81;;;17.41;45.49
41040;BME280;48586;50.122;18.972;2022-09-23T14:30:20;98802.28;;;17.44;45.36
41040;BME280;48586;50.122;18.972;2022-09-23T14:33:27;98805.78;;;17.45;44.43
41040;BME280;48586;50.122;18.972;2022-09-23T14:36:34;98800.78;;;17.54;44.89
41040;BME280;48586;50.122;18.972;2022-09-23T14:39:53;98802.59;;;17.70;45.13
41040;BME280;48586;50.122;18.972;2022-09-23T14:42:57;98791.56;;;17.66;44.18
41040;BME280;48586;50.122;18.972;2022-09-23T14:46:00;98793.75;;;17.69;44.07
41040;BME280;48586;50.122;18.972;2022-09-23T14:49:06;98791.44;;;17.78;44.06
41040;BME280;48586;50.122;18.972;2022-09-23T14:52:16;98789.56;;;17.79;43.17
41040;BME280;48586;50.122;18.972;2022-09-23T14:55:19;98786.84;;;17.52;44.07
41040;BME280;48586;50.122;18.972;2022-09-23T14:58:24;98786.34;;;17.55;45.06
41040;BME280;48586;50.122;18.972;2022-09-23T15:01:36;98786.59;;;17.53;44.36
41040;BME280;48586;50.122;18.972;2022-09-23T15:04:41;98784.22;;;17.57;45.60
41040;BME280;48586;50.122;18.972;2022-09-23T15:07:47;98786.41;;;17.60;45.06
41040;BME280;48586;50.122;18.972;2022-09-23T15:10:50;98783.22;;;17.41;46.03
41040;BME280;48586;50.122;18.972;2022-09-23T15:13:52;98780.72;;;17.34;45.24
41040;BME280;48586;50.122;18.972;2022-09-23T15:16:57;98780.03;;;17.22;45.39
41040;BME280;48586;50.122;18.972;2022-09-23T15:20:03;98789.19;;;17.26;44.41
41040;BME280;48586;50.122;18.972;2022-09-23T15:23:31;98778.00;;;17.29;44.28
41040;BME280;48586;50.122;18.972;2022-09-23T15:26:43;98774.31;;;17.35;45.17
41040;BME280;48586;50.122;18.972;2022-09-23T15:29:45;98784.59;;;17.43;45.96
41040;BME280;48586;50.122;18.972;2022-09-23T15:32:48;98782.19;;;17.42;45.15
41040;BME280;48586;50.122;18.972;2022-09-23T15:35:53;98781.22;;;17.31;45.59
41040;BME280;48586;50.122;18.972;2022-09-23T15:39:00;98772.31;;;17.26;44.80
41040;BME280;48586;50.122;18.972;2022-09-23T15:42:03;98775.91;;;17.14;45.21
41040;BME280;48586;50.122;18.972;2022-09-23T15:45:09;98771.25;;;17.10;45.71
41040;BME280;48586;50.122;18.972;2022-09-23T15:48:13;98773.88;;;17.05;45.80
41040;BME280;48586;50.122;18.972;2022-09-23T15:51:17;98773.22;;;16.98;46.50
41040;BME280;48586;50.122;18.972;2022-09-23T15:54:19;98765.81;;;16.83;46.96
41040;BME280;48586;50.122;18.972;2022-09-23T15:57:22;98766.88;;;16.65;46.81
41040;BME280;48586;50.122;18.972;2022-09-23T16:00:25;98767.28;;;16.57;47.44
41040;BME280;48586;50.122;18.972;2022-09-23T16:03:28;98760.13;;;16.45;47.91
41040;BME280;48586;50.122;18.972;2022-09-23T16:06:32;98763.63;;;16.46;48.49
41040;BME280;48586;50.122;18.972;2022-09-23T16:09:36;98767.53;;;16.38;48.51
41040;BME280;48586;50.122;18.972;2022-09-23T16:12:38;98766.69;;;16.21;48.97
41040;BME280;48586;50.122;18.972;2022-09-23T16:15:41;98765.84;;;16.04;49.13
41040;BME280;48586;50.122;18.972;2022-09-23T16:18:43;98769.28;;;15.87;49.95
41040;BME280;48586;50.122;18.972;2022-09-23T16:21:47;98775.63;;;15.69;50.17
41040;BME280;48586;50.122;18.972;2022-09-23T16:24:50;98770.69;;;15.50;50.99
41040;BME280;48586;50.122;18.972;2022-09-23T16:27:52;98774.88;;;15.34;51.21